AirNav   Phillips 66 Aviation Fuel
 
 918 users online  

25WN Little Plum Creek Airport
Pepin, Wisconsin, USA


FAA INFORMATION EFFECTIVE 20 JULY 2017

Location

FAA Identifier: 25WN
Lat/Long: 44-31-43.3833N / 092-07-13.2278W
44-31.723055N / 092-07.220463W
44.5287176 / -92.1203411
(estimated)
Elevation: 830 ft. / 253 m (estimated)
From city: 5 miles N of PEPIN, WI
Time zone: UTC -5 (UTC -6 during Standard Time)
Zip code: 54759

Airport Operations

Airport use: Private use. Permission required prior to landing
Activation date: 03/2007
Control tower: no
ARTCC: MINNEAPOLIS CENTER
FSS: GREEN BAY FLIGHT SERVICE STATION
Attendance: UNATNDD
Wind indicator: yes
Segmented circle: no

Airport Communications

WX AWOS-3 at RGK (16 nm W): 119.25 (715-594-3763)

Nearby radio navigation aids

VOR radial/distance  VOR name  Freq  Var
ONAr326/32.5WINONA VOR/DME111.4001E
EAUr227/35.2EAU CLAIRE VORTAC112.9004E

Airport Services

Runway Information

Runway 9/27

Dimensions: 2640 x 100 ft. / 805 x 30 m
Surface: turf
RUNWAY 9  RUNWAY 27
Traffic pattern: leftleft

Airport Ownership and Management from official FAA records

Ownership: Privately-owned
Owner: LITTLE PLUM CREEK AIRPARK INC.
11253 ST CROIX TRAIL SOUTH
HASTING, MN 55033
Phone 651-437-8852
Manager: RICHARD G. FREITAG
W9257 PLUM VALLEY RD
PEPIN, WI 54759

Airport Operational Statistics

Aircraft based on the field: 1
Single engine airplanes: 1
    

Instrument Procedures

There are no published instrument procedures at 25WN.

Some nearby airports with instrument procedures:

KRGK - Red Wing Regional Airport (16 nm W)
KLUM - Menomonie Municipal Airport-Score Field (24 nm NE)
3T3 - Boyceville Municipal Airport (31 nm N)
KONA - Winona Municipal Airport-Max Conrad Field (32 nm SE)
KEAU - Chippewa Valley Regional Airport (34 nm NE)
 
Loc | Ops | Rwys | IFR | FBO | Links
Com | Nav | Svcs | Stats | Notes


 
Area around 25WN (Little Plum Creek Airport)
 
Road maps at: MapQuest Bing Google
 
Aerial photo
No photo
 
Sectional chart

 
Airport distance calculator
Flying to Little Plum Creek Airport? Find the distance to fly.

From to 25WN

Sunrise and sunset
Times for 28-Jul-2017
 Local
(UTC-5)
 Zulu
(UTC)
Morning civil twilight05:1810:18
Sunrise05:5210:52
Sunset20:3801:38
Evening civil twilight21:1202:12

Current date and time
Zulu (UTC)  28-Jul-2017 12:31:24
Local (UTC-5)  28-Jul-2017 07:31:24
 
METAR
KRGK 
15nm W 
281215Z AUTO 10003KT 10SM CLR 18/15 A3007 RMK AO2
KLUM 
24nm NE 
281215Z AUTO 00000KT 10SM CLR 17/16 A3010 RMK AO2 T01720158
TAF
KEAU 
34nm NE 
281120Z 2812/2912 04004KT P6SM SKC FM281700 06006KT P6SM FEW060
KRST 
41nm SW 
281133Z 2812/2912 02005KT P6SM SKC FM281600 06008KT P6SM SKC FM290100 VRB04KT P6SM SKC
KRNH 
41nm NW 
281120Z 2812/2912 03004KT P6SM SKC FM281800 08005KT P6SM FEW060 SCT110
NOTAMs
Click for the latest NOTAMs
NOTAMs are issued by the DoD/FAA and will open in a separate window not controlled by AirNav.

 

 
 

Would you like to see your business listed on this page?

 If your business provides an interesting product or service to pilots, flight crews, aircraft, or users of the Little Plum Creek Airport, you should consider listing it here.  To start the listing process, click on the button below
 
Add a business
 

Other Pages about Little Plum Creek Airport

Update a link
 
Copyright © AirNav, LLC. All rights reserved. Privacy Policy  Contact